Aubrey, Arkansas
Current Conditions -  °F | °C
As of 2:15 PM on Friday 28 Nov 2014 (Local Time) from KUTA Reporting Station
Clear Clear  
Wind Chill: 52°   Ceiling: Unl
Heat Index: 52°   Visibility: 10mi
Dew Point: 30°   Wind: 14mph
Humidity: 44%   Direction: 180°S
Pressure: 30.22"   Gusts: 22mph
Location:  34.72°N, 90.9°W
Report Text: KUTA 282015Z AUTO 18012G19KT 10SM CLR 11/M01 A3022 RMK AO2
Loading
Personal Weather Stations






























Interactive Weather Map New forecast layout! Learn more

10-Day Weather Forecast

Advertisements
Track Severe Weather on mobile